createdAt,value
2022-08-21T00:01:34.409Z,101367.06
2022-08-21T00:04:06.425Z,101358.44
2022-08-21T00:06:34.746Z,101362.66
2022-08-21T00:09:06.524Z,101360.31
2022-08-21T00:11:34.399Z,101361.59
2022-08-21T00:14:00.857Z,101360.97
2022-08-21T00:16:27.665Z,101361.59
2022-08-21T00:18:54.237Z,101360.78
2022-08-21T00:21:20.689Z,101361.19
2022-08-21T00:23:47.115Z,101354.47
2022-08-21T00:26:13.559Z,101357.22
2022-08-21T00:28:40.018Z,101350.91
2022-08-21T00:31:06.502Z,101357.78
2022-08-21T00:33:33.899Z,101362.13
2022-08-21T00:36:01.501Z,101355.81
2022-08-21T00:38:27.895Z,101351.03
2022-08-21T00:40:57.326Z,101357.69
2022-08-21T00:43:31.875Z,101353.38
2022-08-21T00:45:59.188Z,101357.44
2022-08-21T00:48:26.562Z,101357.81
2022-08-21T00:51:07.076Z,101357.56
2022-08-21T00:53:36.478Z,101352.97
2022-08-21T00:56:05.645Z,101353.25
2022-08-21T00:58:33.510Z,101351.47
2022-08-21T01:01:00.879Z,101346.59
2022-08-21T01:03:27.458Z,101352.63
2022-08-21T01:05:55.065Z,101340.56
2022-08-21T01:08:22.821Z,101344.72
2022-08-21T01:10:54.490Z,101346.56
2022-08-21T01:13:25.458Z,101343.94
2022-08-21T01:15:55.012Z,101347.44
2022-08-21T01:18:22.457Z,101348.09
2022-08-21T01:21:14.679Z,101348.78
2022-08-21T01:23:43.903Z,101345.34
2022-08-21T01:26:11.413Z,101345.19
2022-08-21T01:28:42.769Z,101347.63
2022-08-21T01:31:14.135Z,101344.56
2022-08-21T01:33:40.706Z,101342.28
2022-08-21T01:36:07.472Z,101343.53
2022-08-21T01:38:34.483Z,101341.13
2022-08-21T01:41:01.321Z,101348.47
2022-08-21T01:43:39.394Z,101347.16
2022-08-21T01:46:06.609Z,101344.69
2022-08-21T01:48:33.191Z,101353.97
2022-08-21T01:50:59.822Z,101346.97
2022-08-21T01:53:27.947Z,101352.94
2022-08-21T01:55:59.893Z,101341.63
2022-08-21T01:58:26.452Z,101338.50
2022-08-21T02:00:52.934Z,101335.78
2022-08-21T02:03:26.227Z,101338.81
2022-08-21T02:06:03.819Z,101332.81
2022-08-21T02:08:30.402Z,101332.50
2022-08-21T02:10:56.804Z,101332.25
2022-08-21T02:13:23.403Z,101329.00
2022-08-21T02:15:49.943Z,101325.75
2022-08-21T02:18:16.658Z,101327.75
2022-08-21T02:20:48.728Z,101330.22
2022-08-21T02:23:26.487Z,101326.78
2022-08-21T02:25:55.269Z,101327.31
2022-08-21T02:28:23.015Z,101329.97
2022-08-21T02:30:50.373Z,101328.28
2022-08-21T02:33:17.340Z,101333.59
2022-08-21T02:35:45.294Z,101330.06
2022-08-21T02:38:15.480Z,101336.13
2022-08-21T02:40:47.928Z,101323.97
2022-08-21T02:43:16.346Z,101327.19
2022-08-21T02:45:43.736Z,101319.09
2022-08-21T02:48:12.284Z,101315.31
2022-08-21T02:50:44.588Z,101317.78
2022-08-21T02:53:15.322Z,101326.28
2022-08-21T02:55:41.746Z,101320.81
2022-08-21T02:58:09.009Z,101316.19
2022-08-21T03:00:37.716Z,101307.84
2022-08-21T03:03:04.989Z,101309.06
2022-08-21T03:05:33.400Z,101317.03
2022-08-21T03:08:02.237Z,101321.38
2022-08-21T03:10:29.953Z,101315.56
2022-08-21T03:12:56.634Z,101319.03
2022-08-21T03:15:25.325Z,101314.31
2022-08-21T03:17:52.296Z,101314.31
2022-08-21T03:20:22.994Z,101304.06
2022-08-21T03:22:53.002Z,101307.28
2022-08-21T03:25:39.579Z,101311.22
2022-08-21T03:28:10.658Z,101304.09
2022-08-21T03:30:40.383Z,101307.28
2022-08-21T03:33:06.788Z,101300.97
2022-08-21T03:35:33.250Z,101301.72
2022-08-21T03:37:59.726Z,101293.81
2022-08-21T03:40:26.697Z,101292.31
2022-08-21T03:42:53.492Z,101295.25
2022-08-21T03:45:20.851Z,101287.66
2022-08-21T03:48:00.723Z,101288.69
2022-08-21T03:50:30.529Z,101290.81
2022-08-21T03:52:57.509Z,101281.72
2022-08-21T03:55:25.447Z,101290.56
2022-08-21T03:57:52.231Z,101284.75
2022-08-21T04:00:19.948Z,101291.13
2022-08-21T04:02:47.127Z,101293.84
2022-08-21T04:05:15.270Z,101291.03
2022-08-21T04:07:41.734Z,101296.41
2022-08-21T04:10:08.903Z,101297.69
2022-08-21T04:12:35.456Z,101300.41
2022-08-21T04:15:02.896Z,101296.97
2022-08-21T04:17:29.380Z,101303.16
2022-08-21T04:19:56.030Z,101295.75
2022-08-21T04:22:22.455Z,101295.81
2022-08-21T04:24:48.951Z,101286.16
2022-08-21T04:27:15.367Z,101291.69
2022-08-21T04:29:41.769Z,101289.91
2022-08-21T04:32:08.216Z,101291.31
2022-08-21T04:34:34.620Z,101298.19
2022-08-21T04:37:01.025Z,101300.25
2022-08-21T04:39:29.784Z,101303.91
2022-08-21T04:41:56.522Z,101293.56
2022-08-21T04:44:22.955Z,101299.22
2022-08-21T04:46:49.346Z,101300.06
2022-08-21T04:49:15.777Z,101297.03
2022-08-21T04:51:42.284Z,101300.88
2022-08-21T04:54:13.594Z,101293.84
2022-08-21T04:56:53.988Z,101292.47
2022-08-21T04:59:25.650Z,101291.31
2022-08-21T05:01:52.886Z,101293.09
2022-08-21T05:04:23.805Z,101301.09
2022-08-21T05:06:52.301Z,101299.50
2022-08-21T05:09:20.806Z,101302.94
2022-08-21T05:11:47.649Z,101305.69
2022-08-21T05:14:14.250Z,101307.59
2022-08-21T05:16:41.519Z,101317.22
2022-08-21T05:19:08.637Z,101317.34
2022-08-21T05:21:36.409Z,101323.03
2022-08-21T05:24:03.145Z,101325.41
2022-08-21T05:26:29.561Z,101326.09
2022-08-21T05:28:56.312Z,101332.09
2022-08-21T05:31:24.429Z,101336.41
2022-08-21T05:33:52.099Z,101333.69
2022-08-21T05:36:19.493Z,101332.75
2022-08-21T05:38:46.219Z,101330.78
2022-08-21T05:41:12.773Z,101331.06
2022-08-21T05:43:39.237Z,101336.13
2022-08-21T05:46:06.796Z,101340.75
2022-08-21T05:48:34.249Z,101338.22
2022-08-21T05:51:07.284Z,101336.91
2022-08-21T05:53:34.163Z,101333.22
2022-08-21T05:56:00.582Z,101332.38
2022-08-21T05:58:27.007Z,101336.41
2022-08-21T06:00:53.780Z,101332.75
2022-08-21T06:03:26.757Z,101336.16
2022-08-21T06:05:53.793Z,101333.69
2022-08-21T06:08:21.096Z,101330.69
2022-08-21T06:10:49.115Z,101330.13
2022-08-21T06:13:17.400Z,101337.66
2022-08-21T06:15:43.948Z,101338.84
2022-08-21T06:18:10.886Z,101334.72
2022-08-21T06:20:37.767Z,101336.81
2022-08-21T06:23:04.549Z,101335.41
2022-08-21T06:25:31.770Z,101328.03
2022-08-21T06:28:06.518Z,101318.25
2022-08-21T06:30:33.756Z,101327.81
2022-08-21T06:33:00.971Z,101319.13
2022-08-21T06:35:29.759Z,101327.34
2022-08-21T06:37:59.721Z,101332.31
2022-08-21T06:40:29.934Z,101331.16
2022-08-21T06:42:58.224Z,101327.72
2022-08-21T06:45:24.982Z,101331.97
2022-08-21T06:47:54.840Z,101332.25
2022-08-21T06:50:21.274Z,101335.00
2022-08-21T06:52:47.696Z,101333.13
2022-08-21T06:55:14.095Z,101330.81
2022-08-21T06:57:52.350Z,101334.19
2022-08-21T07:00:19.526Z,101332.03
2022-08-21T07:02:45.922Z,101329.53
2022-08-21T07:05:18.180Z,101320.00
2022-08-21T07:07:46.381Z,101323.41
2022-08-21T07:10:24.556Z,101322.19
2022-08-21T07:13:00.011Z,101323.66
2022-08-21T07:15:29.063Z,101324.25
2022-08-21T07:17:57.267Z,101318.69
2022-08-21T07:20:23.716Z,101316.94
2022-08-21T07:22:50.192Z,101324.88
2022-08-21T07:25:16.608Z,101311.31
2022-08-21T07:27:43.007Z,101318.34
2022-08-21T07:30:10.059Z,101309.56
2022-08-21T07:32:37.277Z,101313.84
2022-08-21T07:35:04.595Z,101307.16
2022-08-21T07:37:31.007Z,101305.25
2022-08-21T07:39:57.619Z,101312.13
2022-08-21T07:42:24.297Z,101310.91
2022-08-21T07:44:53.168Z,101318.28
2022-08-21T07:47:29.504Z,101322.13
2022-08-21T07:50:10.446Z,101325.47
2022-08-21T07:52:36.876Z,101316.91
2022-08-21T07:55:06.323Z,101313.72
2022-08-21T07:57:33.289Z,101313.25
2022-08-21T07:59:59.761Z,101319.44
2022-08-21T08:02:28.576Z,101307.13
2022-08-21T08:04:55.284Z,101308.59
2022-08-21T08:07:21.733Z,101299.50
2022-08-21T08:09:48.343Z,101307.03
2022-08-21T08:12:14.791Z,101300.81
2022-08-21T08:14:41.254Z,101297.25
2022-08-21T08:17:07.658Z,101305.78
2022-08-21T08:19:34.060Z,101301.78
2022-08-21T08:22:00.497Z,101296.34
2022-08-21T08:24:27.018Z,101297.63
2022-08-21T08:26:54.968Z,101295.84
2022-08-21T08:29:22.422Z,101295.94
2022-08-21T08:31:48.973Z,101297.34
2022-08-21T08:34:25.227Z,101301.72
2022-08-21T08:36:52.435Z,101283.22
2022-08-21T08:39:26.948Z,101293.69
2022-08-21T08:42:32.921Z,101280.72
2022-08-21T08:45:11.670Z,101298.13
2022-08-21T08:47:43.105Z,101290.91
2022-08-21T08:50:22.366Z,101288.69
2022-08-21T08:52:55.107Z,101298.88
2022-08-21T08:55:29.435Z,101281.03
2022-08-21T08:57:56.559Z,101286.66
2022-08-21T09:00:24.101Z,101287.06
2022-08-21T09:02:54.996Z,101287.63
2022-08-21T09:05:46.810Z,101287.53
2022-08-21T09:08:34.899Z,101283.94
2022-08-21T09:11:04.767Z,101277.00
2022-08-21T09:14:05.222Z,101267.19
2022-08-21T09:16:45.494Z,101267.53
2022-08-21T09:19:29.069Z,101264.63
2022-08-21T09:22:14.669Z,101270.81
2022-08-21T09:24:59.794Z,101266.69
2022-08-21T09:27:26.635Z,101260.06
2022-08-21T09:29:55.279Z,101276.88
2022-08-21T09:32:36.977Z,101272.22
2022-08-21T09:35:16.942Z,101271.41
2022-08-21T09:37:52.702Z,101273.38
2022-08-21T09:40:43.783Z,101282.66
2022-08-21T09:43:10.133Z,101284.97
2022-08-21T09:45:37.252Z,101290.41
2022-08-21T09:48:19.803Z,101284.47
2022-08-21T09:50:48.482Z,101282.00
2022-08-21T09:53:25.519Z,101270.94
2022-08-21T09:56:12.527Z,101278.72
2022-08-21T09:58:42.407Z,101280.91
2022-08-21T10:01:16.619Z,101284.66
2022-08-21T10:03:43.309Z,101278.91
2022-08-21T10:06:11.755Z,101285.56
2022-08-21T10:08:40.938Z,101271.72
2022-08-21T10:11:12.573Z,101271.69
2022-08-21T10:14:04.663Z,101275.25
2022-08-21T10:16:38.348Z,101275.66
2022-08-21T10:19:37.294Z,101281.97
2022-08-21T10:22:23.633Z,101286.97
2022-08-21T10:24:56.566Z,101283.19
2022-08-21T10:27:47.617Z,101282.50
2022-08-21T10:30:20.752Z,101269.81
2022-08-21T10:33:09.016Z,101266.78
2022-08-21T10:35:50.762Z,101270.38
2022-08-21T10:38:58.613Z,101268.34
2022-08-21T10:41:48.771Z,101270.84
2022-08-21T10:44:25.087Z,101260.25
2022-08-21T10:47:13.749Z,101253.94
2022-08-21T10:49:59.973Z,101248.38
2022-08-21T10:53:10.585Z,101265.13
2022-08-21T10:55:57.417Z,101262.00
2022-08-21T10:58:31.380Z,101265.53
2022-08-21T11:01:16.244Z,101255.31
2022-08-21T11:03:52.867Z,101248.13
2022-08-21T11:06:26.038Z,101258.69
2022-08-21T11:09:00.513Z,101259.16
2022-08-21T11:11:41.878Z,101248.63
2022-08-21T11:14:25.369Z,101245.75
2022-08-21T11:17:04.565Z,101246.94
2022-08-21T11:19:46.048Z,101245.16
2022-08-21T11:22:22.267Z,101238.09
2022-08-21T11:25:01.299Z,101243.88
2022-08-21T11:27:37.371Z,101249.72
2022-08-21T11:30:04.679Z,101253.94
2022-08-21T11:32:58.609Z,101244.91
2022-08-21T11:35:52.899Z,101231.34
2022-08-21T11:38:22.365Z,101236.06
2022-08-21T11:41:07.612Z,101235.22
2022-08-21T11:43:43.709Z,101237.56
2022-08-21T11:46:32.060Z,101237.09
2022-08-21T11:49:09.342Z,101225.53
2022-08-21T11:51:41.592Z,101232.81
2022-08-21T11:54:36.595Z,101233.53
2022-08-21T11:57:28.746Z,101239.75
2022-08-21T12:00:10.128Z,101242.75
2022-08-21T12:02:42.716Z,101255.59
2022-08-21T12:05:12.486Z,101258.22
2022-08-21T12:07:42.285Z,101257.53
2022-08-21T12:10:16.535Z,101256.63
2022-08-21T12:12:45.121Z,101259.03
2022-08-21T12:15:17.012Z,101250.13
2022-08-21T12:17:55.168Z,101248.94
2022-08-21T12:20:21.869Z,101243.34
2022-08-21T12:23:02.494Z,101249.69
2022-08-21T12:26:01.734Z,101248.25
2022-08-21T12:28:31.074Z,101252.28
2022-08-21T12:30:58.677Z,101246.66
2022-08-21T12:33:31.289Z,101245.53
2022-08-21T12:36:22.111Z,101249.88
2022-08-21T12:38:57.174Z,101240.81
2022-08-21T12:41:31.417Z,101247.81
2022-08-21T12:44:15.421Z,101253.38
2022-08-21T12:47:05.711Z,101256.00
2022-08-21T12:49:35.827Z,101255.00
2022-08-21T12:52:23.077Z,101249.09
2022-08-21T12:54:49.567Z,101245.03
2022-08-21T12:57:37.115Z,101250.56
2022-08-21T13:00:12.982Z,101261.22
2022-08-21T13:02:47.200Z,101257.41
2022-08-21T13:05:22.006Z,101258.00
2022-08-21T13:07:49.794Z,101257.56
2022-08-21T13:10:33.289Z,101246.31
2022-08-21T13:13:12.665Z,101244.63
2022-08-21T13:15:42.340Z,101253.03
2022-08-21T13:18:23.992Z,101255.00
2022-08-21T13:20:51.226Z,101258.69
2022-08-21T13:23:29.070Z,101248.41
2022-08-21T13:25:56.680Z,101247.09
2022-08-21T13:28:23.605Z,101250.75
2022-08-21T13:30:54.915Z,101254.31
2022-08-21T13:33:25.107Z,101254.72
2022-08-21T13:36:14.695Z,101253.31
2022-08-21T13:38:43.530Z,101250.41
2022-08-21T13:41:31.885Z,101247.81
2022-08-21T13:44:07.474Z,101240.06
2022-08-21T13:46:36.634Z,101248.94
2022-08-21T13:49:06.889Z,101241.88
2022-08-21T13:51:34.690Z,101238.47
2022-08-21T13:54:01.345Z,101241.72
2022-08-21T13:56:33.796Z,101252.75
2022-08-21T13:59:02.356Z,101236.22
2022-08-21T14:01:32.968Z,101242.88
2022-08-21T14:04:17.526Z,101239.41
2022-08-21T14:06:44.118Z,101229.91
2022-08-21T14:09:35.988Z,101229.28
2022-08-21T14:12:23.324Z,101227.75
2022-08-21T14:14:50.415Z,101233.03
2022-08-21T14:17:33.470Z,101231.19
2022-08-21T14:20:00.763Z,101225.53
2022-08-21T14:22:39.393Z,101219.56
2022-08-21T14:25:13.035Z,101225.28
2022-08-21T14:27:45.750Z,101220.34
2022-08-21T14:30:19.394Z,101228.22
2022-08-21T14:32:46.441Z,101220.19
2022-08-21T14:35:14.085Z,101231.25
2022-08-21T14:37:44.321Z,101235.50
2022-08-21T14:40:12.440Z,101230.28
2022-08-21T14:42:42.904Z,101232.63
2022-08-21T14:45:24.438Z,101236.91
2022-08-21T14:47:54.532Z,101230.91
2022-08-21T14:50:21.188Z,101238.72
2022-08-21T14:52:47.667Z,101231.91
2022-08-21T14:55:17.757Z,101233.38
2022-08-21T14:57:50.751Z,101233.09
2022-08-21T15:00:20.599Z,101237.75
2022-08-21T15:02:47.418Z,101244.63
2022-08-21T15:05:16.226Z,101238.28
2022-08-21T15:07:51.162Z,101239.53
2022-08-21T15:10:17.581Z,101242.47
2022-08-21T15:12:44.031Z,101244.53
2022-08-21T15:15:10.814Z,101242.19
2022-08-21T15:17:37.897Z,101252.19
2022-08-21T15:20:07.453Z,101245.09
2022-08-21T15:22:34.482Z,101243.69
2022-08-21T15:25:02.029Z,101254.50
2022-08-21T15:27:29.868Z,101249.53
2022-08-21T15:29:56.630Z,101253.50
2022-08-21T15:32:28.201Z,101248.66
2022-08-21T15:34:56.160Z,101251.34
2022-08-21T15:37:23.864Z,101257.28
2022-08-21T15:39:54.058Z,101263.91
2022-08-21T15:42:21.919Z,101247.78
2022-08-21T15:44:49.125Z,101259.50
2022-08-21T15:47:18.811Z,101256.06
2022-08-21T15:49:46.342Z,101257.59
2022-08-21T15:52:15.089Z,101261.50
2022-08-21T15:54:42.145Z,101262.09
2022-08-21T15:57:12.134Z,101272.16
2022-08-21T15:59:58.038Z,101267.84
2022-08-21T16:02:28.494Z,101268.03
2022-08-21T16:04:55.279Z,101263.78
2022-08-21T16:07:21.704Z,101265.06
2022-08-21T16:09:48.157Z,101266.78
2022-08-21T16:12:23.785Z,101267.47
2022-08-21T16:14:52.685Z,101277.56
2022-08-21T16:17:19.473Z,101279.97
2022-08-21T16:19:46.340Z,101278.13
2022-08-21T16:22:12.811Z,101282.84
2022-08-21T16:24:39.329Z,101267.00
2022-08-21T16:27:08.097Z,101271.59
2022-08-21T16:29:37.333Z,101280.53
2022-08-21T16:32:05.129Z,101277.09
2022-08-21T16:34:31.875Z,101279.97
2022-08-21T16:36:58.304Z,101271.59
2022-08-21T16:39:24.810Z,101276.25
2022-08-21T16:41:51.875Z,101262.91
2022-08-21T16:44:20.459Z,101262.94
2022-08-21T16:46:47.046Z,101268.34
2022-08-21T16:49:13.787Z,101271.22
2022-08-21T16:51:40.625Z,101267.13
2022-08-21T16:54:07.140Z,101272.69
2022-08-21T16:56:35.186Z,101276.16
2022-08-21T16:59:05.077Z,101267.63
2022-08-21T17:01:34.189Z,101265.22
2022-08-21T17:04:00.715Z,101268.00
2022-08-21T17:06:29.248Z,101269.81
2022-08-21T17:08:56.229Z,101267.88
2022-08-21T17:11:36.545Z,101268.69
2022-08-21T17:14:08.667Z,101259.94
2022-08-21T17:16:35.491Z,101268.94
2022-08-21T17:19:01.954Z,101261.66
2022-08-21T17:21:28.349Z,101269.66
2022-08-21T17:23:54.769Z,101270.50
2022-08-21T17:26:21.301Z,101262.81
2022-08-21T17:28:49.343Z,101258.97
2022-08-21T17:31:18.305Z,101265.19
2022-08-21T17:33:50.598Z,101269.06
2022-08-21T17:36:22.386Z,101261.72
2022-08-21T17:38:48.899Z,101269.06
2022-08-21T17:41:16.785Z,101269.53
2022-08-21T17:43:43.496Z,101267.28
2022-08-21T17:46:15.084Z,101272.00
2022-08-21T17:48:41.511Z,101267.66
2022-08-21T17:51:14.488Z,101269.78
2022-08-21T17:53:41.127Z,101265.13
2022-08-21T17:56:07.715Z,101271.19
2022-08-21T17:58:34.558Z,101269.47
2022-08-21T18:01:05.889Z,101275.84
2022-08-21T18:03:37.164Z,101275.38
2022-08-21T18:06:06.230Z,101271.63
2022-08-21T18:08:33.613Z,101270.31
2022-08-21T18:11:00.831Z,101268.28
2022-08-21T18:13:31.262Z,101273.66
2022-08-21T18:16:00.122Z,101273.63
2022-08-21T18:18:30.141Z,101277.13
2022-08-21T18:20:56.621Z,101267.47
2022-08-21T18:23:43.233Z,101278.06
2022-08-21T18:26:09.711Z,101274.16
2022-08-21T18:28:38.324Z,101273.72
2022-08-21T18:31:07.275Z,101269.75
2022-08-21T18:33:33.743Z,101267.38
2022-08-21T18:36:00.154Z,101270.44
2022-08-21T18:38:31.296Z,101276.78
2022-08-21T18:40:59.556Z,101281.44
2022-08-21T18:43:26.729Z,101280.44
2022-08-21T18:45:53.647Z,101280.53
2022-08-21T18:48:20.342Z,101280.66
2022-08-21T18:50:47.923Z,101284.75
2022-08-21T18:53:24.165Z,101284.75
2022-08-21T18:55:54.865Z,101290.34
2022-08-21T18:58:24.432Z,101289.16
2022-08-21T19:00:52.543Z,101284.78
2022-08-21T19:03:23.678Z,101283.31
2022-08-21T19:05:52.551Z,101289.66
2022-08-21T19:08:22.560Z,101294.38
2022-08-21T19:10:51.326Z,101302.44
2022-08-21T19:13:20.643Z,101292.56
2022-08-21T19:15:52.837Z,101299.78
2022-08-21T19:18:27.974Z,101300.38
2022-08-21T19:20:54.607Z,101292.81
2022-08-21T19:23:21.422Z,101290.75
2022-08-21T19:26:00.491Z,101289.72
2022-08-21T19:28:41.258Z,101293.97
2022-08-21T19:31:23.583Z,101292.78
2022-08-21T19:34:01.634Z,101301.63
2022-08-21T19:36:28.981Z,101301.00
2022-08-21T19:38:55.494Z,101298.94
2022-08-21T19:41:24.012Z,101316.28
2022-08-21T19:43:55.173Z,101316.50
2022-08-21T19:46:41.884Z,101311.25
2022-08-21T19:49:16.619Z,101318.47
2022-08-21T19:51:46.583Z,101326.72
2022-08-21T19:54:33.118Z,101320.34
2022-08-21T19:59:50.407Z,101317.41
2022-08-21T20:02:19.551Z,101320.34
2022-08-21T20:04:54.021Z,101315.09
2022-08-21T20:07:26.374Z,101320.19
2022-08-21T20:09:54.030Z,101320.59
2022-08-21T20:12:20.537Z,101318.31
2022-08-21T20:14:47.821Z,101319.59
2022-08-21T20:17:17.561Z,101319.78
2022-08-21T20:19:49.127Z,101324.66
2022-08-21T20:22:17.992Z,101318.53
2022-08-21T20:24:44.544Z,101320.00
2022-08-21T20:27:20.408Z,101319.38
2022-08-21T20:29:47.200Z,101320.25
2022-08-21T20:32:16.748Z,101316.41
2022-08-21T20:34:45.049Z,101315.59
2022-08-21T20:37:12.099Z,101324.03
2022-08-21T20:39:38.579Z,101319.16
2022-08-21T20:42:09.351Z,101320.25
2022-08-21T20:44:37.292Z,101314.75
2022-08-21T20:47:08.782Z,101318.34
2022-08-21T20:49:44.573Z,101316.66
2022-08-21T20:52:13.473Z,101317.53
2022-08-21T20:55:03.913Z,101314.75
2022-08-21T20:57:36.708Z,101320.25
2022-08-21T21:00:14.483Z,101312.69
2022-08-21T21:02:59.877Z,101313.72
2022-08-21T21:05:31.691Z,101316.66
2022-08-21T21:08:11.871Z,101308.88
2022-08-21T21:10:47.999Z,101312.69
2022-08-21T21:13:21.074Z,101316.47
2022-08-21T21:15:53.451Z,101318.59
2022-08-21T21:18:32.120Z,101315.00
2022-08-21T21:21:18.838Z,101310.59
2022-08-21T21:24:31.673Z,101316.50
2022-08-21T21:27:11.662Z,101314.81
2022-08-21T21:29:45.776Z,101316.50
2022-08-21T21:32:17.928Z,101315.00
2022-08-21T21:34:46.587Z,101318.78
2022-08-21T21:37:41.024Z,101321.13
2022-08-21T21:40:33.262Z,101318.59
2022-08-21T21:43:26.974Z,101315.03
2022-08-21T21:46:20.202Z,101321.53
2022-08-21T21:49:14.781Z,101320.28
2022-08-21T21:52:11.069Z,101319.03
2022-08-21T21:55:11.793Z,101323.03
2022-08-21T21:58:03.634Z,101325.53
2022-08-21T22:00:35.959Z,101325.34
2022-08-21T22:03:13.173Z,101322.38
2022-08-21T22:05:45.778Z,101320.50
2022-08-21T22:08:24.122Z,101320.28
2022-08-21T22:11:24.296Z,101321.53
2022-08-21T22:14:08.488Z,101315.22
2022-08-21T22:16:36.069Z,101318.16
2022-08-21T22:19:13.872Z,101321.53
2022-08-21T22:21:49.076Z,101312.69
2022-08-21T22:24:22.411Z,101319.44
2022-08-21T22:26:53.712Z,101323.22
2022-08-21T22:29:22.717Z,101316.03
2022-08-21T22:32:06.792Z,101316.03
2022-08-21T22:34:33.590Z,101319.84
2022-08-21T22:37:05.540Z,101305.69
2022-08-21T22:39:42.435Z,101312.25
2022-08-21T22:42:16.542Z,101317.06
2022-08-21T22:45:01.990Z,101314.31
2022-08-21T22:47:39.109Z,101318.97
2022-08-21T22:50:16.853Z,101309.88
2022-08-21T22:53:03.125Z,101307.59
2022-08-21T22:55:39.328Z,101308.84
2022-08-21T22:58:21.005Z,101308.00
2022-08-21T23:00:52.271Z,101316.81
2022-08-21T23:03:24.887Z,101313.47
2022-08-21T23:05:52.742Z,101318.09
2022-08-21T23:08:25.106Z,101320.38
2022-08-21T23:10:58.011Z,101322.69
2022-08-21T23:13:24.741Z,101317.44
2022-08-21T23:16:10.841Z,101311.13
2022-08-21T23:19:14.030Z,101307.75
2022-08-21T23:21:59.486Z,101313.00
2022-08-21T23:24:32.668Z,101309.03
2022-08-21T23:27:27.097Z,101312.59
2022-08-21T23:30:12.365Z,101305.66
2022-08-21T23:33:03.020Z,101308.16
2022-08-21T23:36:06.439Z,101302.28
2022-08-21T23:39:02.874Z,101298.25
2022-08-21T23:41:55.805Z,101299.50
2022-08-21T23:44:51.765Z,101294.25
2022-08-21T23:47:30.113Z,101300.38
2022-08-21T23:50:14.345Z,101298.03
2022-08-21T23:53:09.296Z,101301.19
2022-08-21T23:55:35.813Z,101300.31
2022-08-21T23:58:18.514Z,101289.81
